sensor_id;sensor_type;location;lat;lon;timestamp;temperature;humidity
64654;DHT22;51065;48.884;12.598;2023-02-18T00:01:17;10.80;99.90
64654;DHT22;51065;48.884;12.598;2023-02-18T00:03:43;10.80;99.90
64654;DHT22;51065;48.884;12.598;2023-02-18T00:06:13;10.80;99.90
64654;DHT22;51065;48.884;12.598;2023-02-18T00:08:40;10.80;99.90
64654;DHT22;51065;48.884;12.598;2023-02-18T00:11:07;10.80;99.90
64654;DHT22;51065;48.884;12.598;2023-02-18T00:13:33;10.80;99.90
64654;DHT22;51065;48.884;12.598;2023-02-18T00:16:07;10.90;99.90
64654;DHT22;51065;48.884;12.598;2023-02-18T00:18:33;10.90;99.90
64654;DHT22;51065;48.884;12.598;2023-02-18T00:20:59;10.90;99.90
64654;DHT22;51065;48.884;12.598;2023-02-18T00:23:24;10.90;99.90
64654;DHT22;51065;48.884;12.598;2023-02-18T00:25:59;10.90;99.90
64654;DHT22;51065;48.884;12.598;2023-02-18T00:28:24;10.90;99.90
64654;DHT22;51065;48.884;12.598;2023-02-18T00:30:50;10.90;99.90
64654;DHT22;51065;48.884;12.598;2023-02-18T00:33:16;10.90;99.90
64654;DHT22;51065;48.884;12.598;2023-02-18T00:35:41;10.90;99.90
64654;DHT22;51065;48.884;12.598;2023-02-18T00:38:07;11.00;99.90
64654;DHT22;51065;48.884;12.598;2023-02-18T00:40:36;11.00;99.90
64654;DHT22;51065;48.884;12.598;2023-02-18T00:43:02;11.00;99.90
64654;DHT22;51065;48.884;12.598;2023-02-18T00:45:28;11.00;99.90
64654;DHT22;51065;48.884;12.598;2023-02-18T00:47:53;10.90;99.90
64654;DHT22;51065;48.884;12.598;2023-02-18T00:50:19;10.90;99.90
64654;DHT22;51065;48.884;12.598;2023-02-18T00:52:44;10.90;99.90
64654;DHT22;51065;48.884;12.598;2023-02-18T00:55:10;11.00;99.90
64654;DHT22;51065;48.884;12.598;2023-02-18T00:57:36;10.90;99.90
64654;DHT22;51065;48.884;12.598;2023-02-18T01:00:06;11.00;99.90
64654;DHT22;51065;48.884;12.598;2023-02-18T01:02:32;10.90;99.90
64654;DHT22;51065;48.884;12.598;2023-02-18T01:04:57;10.90;99.90
64654;DHT22;51065;48.884;12.598;2023-02-18T01:07:23;10.90;99.90
64654;DHT22;51065;48.884;12.598;2023-02-18T01:09:48;10.90;99.90
64654;DHT22;51065;48.884;12.598;2023-02-18T01:12:14;10.90;99.90
64654;DHT22;51065;48.884;12.598;2023-02-18T01:14:40;10.80;99.90
64654;DHT22;51065;48.884;12.598;2023-02-18T01:17:06;10.80;99.90
64654;DHT22;51065;48.884;12.598;2023-02-18T01:19:31;10.80;99.90
64654;DHT22;51065;48.884;12.598;2023-02-18T01:21:57;10.80;99.90
64654;DHT22;51065;48.884;12.598;2023-02-18T01:24:22;10.80;99.90
64654;DHT22;51065;48.884;12.598;2023-02-18T01:26:48;10.80;99.90
64654;DHT22;51065;48.884;12.598;2023-02-18T01:29:13;10.80;99.90
64654;DHT22;51065;48.884;12.598;2023-02-18T01:31:39;10.80;99.90
64654;DHT22;51065;48.884;12.598;2023-02-18T01:34:05;10.80;99.90
64654;DHT22;51065;48.884;12.598;2023-02-18T01:36:30;10.80;99.90
64654;DHT22;51065;48.884;12.598;2023-02-18T01:38:56;10.80;99.90
64654;DHT22;51065;48.884;12.598;2023-02-18T01:41:21;10.80;99.90
64654;DHT22;51065;48.884;12.598;2023-02-18T01:43:47;10.80;99.90
64654;DHT22;51065;48.884;12.598;2023-02-18T01:46:20;10.80;99.90
64654;DHT22;51065;48.884;12.598;2023-02-18T01:48:50;10.80;99.90
64654;DHT22;51065;48.884;12.598;2023-02-18T01:51:27;10.90;99.90
64654;DHT22;51065;48.884;12.598;2023-02-18T01:56:30;10.80;99.90
64654;DHT22;51065;48.884;12.598;2023-02-18T01:59:00;10.90;99.90
64654;DHT22;51065;48.884;12.598;2023-02-18T02:01:26;10.90;99.90
64654;DHT22;51065;48.884;12.598;2023-02-18T02:03:52;10.90;99.90
64654;DHT22;51065;48.884;12.598;2023-02-18T02:06:21;10.80;99.90
64654;DHT22;51065;48.884;12.598;2023-02-18T02:08:48;10.90;99.90
64654;DHT22;51065;48.884;12.598;2023-02-18T02:11:29;10.80;99.90
64654;DHT22;51065;48.884;12.598;2023-02-18T02:17:24;10.90;99.90
64654;DHT22;51065;48.884;12.598;2023-02-18T02:22:52;10.80;99.90
64654;DHT22;51065;48.884;12.598;2023-02-18T02:29:00;10.90;99.90
64654;DHT22;51065;48.884;12.598;2023-02-18T02:42:52;10.90;99.90
64654;DHT22;51065;48.884;12.598;2023-02-18T02:48:04;10.80;99.90
64654;DHT22;51065;48.884;12.598;2023-02-18T02:50:46;10.80;99.90
64654;DHT22;51065;48.884;12.598;2023-02-18T02:53:22;10.80;99.90
64654;DHT22;51065;48.884;12.598;2023-02-18T02:55:49;10.80;99.90
64654;DHT22;51065;48.884;12.598;2023-02-18T02:58:17;10.80;99.90
64654;DHT22;51065;48.884;12.598;2023-02-18T03:03:22;10.80;99.90
64654;DHT22;51065;48.884;12.598;2023-02-18T03:08:40;10.80;99.90
64654;DHT22;51065;48.884;12.598;2023-02-18T03:11:12;10.80;99.90
64654;DHT22;51065;48.884;12.598;2023-02-18T03:13:48;10.80;99.90
64654;DHT22;51065;48.884;12.598;2023-02-18T03:16:26;10.80;99.90
64654;DHT22;51065;48.884;12.598;2023-02-18T03:24:23;10.80;99.90
64654;DHT22;51065;48.884;12.598;2023-02-18T03:26:53;10.90;99.90
64654;DHT22;51065;48.884;12.598;2023-02-18T03:29:21;10.90;99.90
64654;DHT22;51065;48.884;12.598;2023-02-18T03:31:52;10.90;99.90
64654;DHT22;51065;48.884;12.598;2023-02-18T03:34:24;10.90;99.90
64654;DHT22;51065;48.884;12.598;2023-02-18T03:36:51;10.90;99.90
64654;DHT22;51065;48.884;12.598;2023-02-18T03:39:20;10.80;99.90
64654;DHT22;51065;48.884;12.598;2023-02-18T03:41:48;10.80;99.90
64654;DHT22;51065;48.884;12.598;2023-02-18T03:44:14;10.80;99.90
64654;DHT22;51065;48.884;12.598;2023-02-18T03:46:41;10.90;99.90
64654;DHT22;51065;48.884;12.598;2023-02-18T03:49:09;10.90;99.90
64654;DHT22;51065;48.884;12.598;2023-02-18T03:51:35;10.90;99.90
64654;DHT22;51065;48.884;12.598;2023-02-18T03:54:01;10.90;99.90
64654;DHT22;51065;48.884;12.598;2023-02-18T03:56:26;10.80;99.90
64654;DHT22;51065;48.884;12.598;2023-02-18T03:58:52;10.80;99.90
64654;DHT22;51065;48.884;12.598;2023-02-18T04:01:18;10.80;99.90
64654;DHT22;51065;48.884;12.598;2023-02-18T04:03:43;10.90;99.90
64654;DHT22;51065;48.884;12.598;2023-02-18T04:06:09;10.90;99.90
64654;DHT22;51065;48.884;12.598;2023-02-18T04:08:35;10.90;99.90
64654;DHT22;51065;48.884;12.598;2023-02-18T04:11:00;10.90;99.90
64654;DHT22;51065;48.884;12.598;2023-02-18T04:13:26;10.90;99.90
64654;DHT22;51065;48.884;12.598;2023-02-18T04:15:52;10.90;99.90
64654;DHT22;51065;48.884;12.598;2023-02-18T04:18:18;10.90;99.90
64654;DHT22;51065;48.884;12.598;2023-02-18T04:20:44;10.90;99.90
64654;DHT22;51065;48.884;12.598;2023-02-18T04:23:13;10.90;99.90
64654;DHT22;51065;48.884;12.598;2023-02-18T04:25:39;11.00;99.90
64654;DHT22;51065;48.884;12.598;2023-02-18T04:28:05;10.90;99.90
64654;DHT22;51065;48.884;12.598;2023-02-18T04:30:31;10.80;99.90
64654;DHT22;51065;48.884;12.598;2023-02-18T04:32:56;10.90;99.90
64654;DHT22;51065;48.884;12.598;2023-02-18T04:35:22;10.80;99.90
64654;DHT22;51065;48.884;12.598;2023-02-18T04:37:48;10.80;99.90
64654;DHT22;51065;48.884;12.598;2023-02-18T04:40:14;10.80;99.90
64654;DHT22;51065;48.884;12.598;2023-02-18T04:42:40;10.90;99.90
64654;DHT22;51065;48.884;12.598;2023-02-18T04:45:06;10.90;99.90
64654;DHT22;51065;48.884;12.598;2023-02-18T04:47:31;10.90;99.90
64654;DHT22;51065;48.884;12.598;2023-02-18T04:49:58;10.80;99.90
64654;DHT22;51065;48.884;12.598;2023-02-18T04:52:23;10.80;99.90
64654;DHT22;51065;48.884;12.598;2023-02-18T04:54:49;10.80;99.90
64654;DHT22;51065;48.884;12.598;2023-02-18T04:57:14;10.60;99.90
64654;DHT22;51065;48.884;12.598;2023-02-18T04:59:40;10.40;99.90
64654;DHT22;51065;48.884;12.598;2023-02-18T05:02:05;10.30;99.90
64654;DHT22;51065;48.884;12.598;2023-02-18T05:04:31;10.40;99.90
64654;DHT22;51065;48.884;12.598;2023-02-18T05:06:57;10.40;99.90
64654;DHT22;51065;48.884;12.598;2023-02-18T05:09:23;10.50;99.90
64654;DHT22;51065;48.884;12.598;2023-02-18T05:11:48;10.50;99.90
64654;DHT22;51065;48.884;12.598;2023-02-18T05:14:14;10.40;99.90
64654;DHT22;51065;48.884;12.598;2023-02-18T05:16:40;10.40;99.90
64654;DHT22;51065;48.884;12.598;2023-02-18T05:19:05;10.40;99.90
64654;DHT22;51065;48.884;12.598;2023-02-18T05:21:31;10.40;99.90
64654;DHT22;51065;48.884;12.598;2023-02-18T05:23:57;10.40;99.90
64654;DHT22;51065;48.884;12.598;2023-02-18T05:26:23;10.40;99.90
64654;DHT22;51065;48.884;12.598;2023-02-18T05:28:49;10.40;99.90
64654;DHT22;51065;48.884;12.598;2023-02-18T05:31:14;10.40;99.90
64654;DHT22;51065;48.884;12.598;2023-02-18T05:33:40;10.30;99.90
64654;DHT22;51065;48.884;12.598;2023-02-18T05:36:06;10.30;99.90
64654;DHT22;51065;48.884;12.598;2023-02-18T05:38:32;10.20;99.90
64654;DHT22;51065;48.884;12.598;2023-02-18T05:40:57;10.20;99.90
64654;DHT22;51065;48.884;12.598;2023-02-18T05:43:23;10.00;99.90
64654;DHT22;51065;48.884;12.598;2023-02-18T05:45:48;10.00;99.90
64654;DHT22;51065;48.884;12.598;2023-02-18T05:48:14;9.90;99.90
64654;DHT22;51065;48.884;12.598;2023-02-18T05:50:40;9.90;99.90
64654;DHT22;51065;48.884;12.598;2023-02-18T05:53:06;9.90;99.90
64654;DHT22;51065;48.884;12.598;2023-02-18T05:55:31;9.90;99.90
64654;DHT22;51065;48.884;12.598;2023-02-18T05:58:02;9.90;99.90
64654;DHT22;51065;48.884;12.598;2023-02-18T06:00:28;9.90;99.90
64654;DHT22;51065;48.884;12.598;2023-02-18T06:02:54;10.00;99.90
64654;DHT22;51065;48.884;12.598;2023-02-18T06:05:20;10.00;99.90
64654;DHT22;51065;48.884;12.598;2023-02-18T06:07:45;10.00;99.90
64654;DHT22;51065;48.884;12.598;2023-02-18T06:10:11;10.00;99.90
64654;DHT22;51065;48.884;12.598;2023-02-18T06:12:37;10.00;99.90
64654;DHT22;51065;48.884;12.598;2023-02-18T06:15:03;10.00;99.90
64654;DHT22;51065;48.884;12.598;2023-02-18T06:17:29;10.00;99.90
64654;DHT22;51065;48.884;12.598;2023-02-18T06:19:54;10.00;99.90
64654;DHT22;51065;48.884;12.598;2023-02-18T06:22:20;10.00;99.90
64654;DHT22;51065;48.884;12.598;2023-02-18T06:24:46;10.00;99.90
64654;DHT22;51065;48.884;12.598;2023-02-18T06:27:12;10.00;99.90
64654;DHT22;51065;48.884;12.598;2023-02-18T06:29:37;10.00;99.90
64654;DHT22;51065;48.884;12.598;2023-02-18T06:32:03;10.00;99.90
64654;DHT22;51065;48.884;12.598;2023-02-18T06:34:29;10.00;99.90
64654;DHT22;51065;48.884;12.598;2023-02-18T06:36:54;10.00;99.90
64654;DHT22;51065;48.884;12.598;2023-02-18T06:39:20;10.00;99.90
64654;DHT22;51065;48.884;12.598;2023-02-18T06:41:45;10.10;99.90
64654;DHT22;51065;48.884;12.598;2023-02-18T06:44:11;10.10;99.90
64654;DHT22;51065;48.884;12.598;2023-02-18T06:46:39;10.20;99.90
64654;DHT22;51065;48.884;12.598;2023-02-18T06:49:06;10.30;99.90
64654;DHT22;51065;48.884;12.598;2023-02-18T06:51:31;10.30;99.90
64654;DHT22;51065;48.884;12.598;2023-02-18T06:53:57;10.30;99.90
64654;DHT22;51065;48.884;12.598;2023-02-18T06:56:22;10.30;99.90
64654;DHT22;51065;48.884;12.598;2023-02-18T06:58:48;10.40;99.90
64654;DHT22;51065;48.884;12.598;2023-02-18T07:01:13;10.40;99.90
64654;DHT22;51065;48.884;12.598;2023-02-18T07:03:39;10.40;99.90
64654;DHT22;51065;48.884;12.598;2023-02-18T07:06:05;10.40;99.90
64654;DHT22;51065;48.884;12.598;2023-02-18T07:08:30;10.50;99.90
64654;DHT22;51065;48.884;12.598;2023-02-18T07:11:00;10.50;99.90
64654;DHT22;51065;48.884;12.598;2023-02-18T07:13:26;10.50;99.90
64654;DHT22;51065;48.884;12.598;2023-02-18T07:15:51;10.60;99.90
64654;DHT22;51065;48.884;12.598;2023-02-18T07:18:17;10.60;99.90
64654;DHT22;51065;48.884;12.598;2023-02-18T07:20:42;10.60;99.90
64654;DHT22;51065;48.884;12.598;2023-02-18T07:23:08;10.60;99.90
64654;DHT22;51065;48.884;12.598;2023-02-18T07:25:35;10.60;99.90
64654;DHT22;51065;48.884;12.598;2023-02-18T07:28:01;10.60;99.90
64654;DHT22;51065;48.884;12.598;2023-02-18T07:30:26;10.60;99.90
64654;DHT22;51065;48.884;12.598;2023-02-18T07:32:52;10.60;99.90
64654;DHT22;51065;48.884;12.598;2023-02-18T07:35:17;10.60;99.90
64654;DHT22;51065;48.884;12.598;2023-02-18T07:37:48;10.50;99.90
64654;DHT22;51065;48.884;12.598;2023-02-18T07:40:15;10.60;99.90
64654;DHT22;51065;48.884;12.598;2023-02-18T07:42:41;10.60;99.90
64654;DHT22;51065;48.884;12.598;2023-02-18T07:45:07;10.50;99.90
64654;DHT22;51065;48.884;12.598;2023-02-18T07:47:32;10.50;99.90
64654;DHT22;51065;48.884;12.598;2023-02-18T07:49:58;10.50;99.90
64654;DHT22;51065;48.884;12.598;2023-02-18T07:52:24;10.50;99.90
64654;DHT22;51065;48.884;12.598;2023-02-18T07:54:49;10.50;99.90
64654;DHT22;51065;48.884;12.598;2023-02-18T07:57:15;10.60;99.90
64654;DHT22;51065;48.884;12.598;2023-02-18T07:59:40;10.60;99.90
64654;DHT22;51065;48.884;12.598;2023-02-18T08:02:07;10.70;99.90
64654;DHT22;51065;48.884;12.598;2023-02-18T08:04:38;10.70;99.90
64654;DHT22;51065;48.884;12.598;2023-02-18T08:07:03;10.70;99.90
64654;DHT22;51065;48.884;12.598;2023-02-18T08:09:28;10.80;99.90
64654;DHT22;51065;48.884;12.598;2023-02-18T08:11:54;10.80;99.90
64654;DHT22;51065;48.884;12.598;2023-02-18T08:14:20;10.80;99.90
64654;DHT22;51065;48.884;12.598;2023-02-18T08:16:45;10.80;99.90
64654;DHT22;51065;48.884;12.598;2023-02-18T08:19:11;10.90;99.90
64654;DHT22;51065;48.884;12.598;2023-02-18T08:21:36;11.00;99.90
64654;DHT22;51065;48.884;12.598;2023-02-18T08:24:02;11.00;99.90
64654;DHT22;51065;48.884;12.598;2023-02-18T08:26:28;11.00;99.90
64654;DHT22;51065;48.884;12.598;2023-02-18T08:28:53;11.10;99.90
64654;DHT22;51065;48.884;12.598;2023-02-18T08:31:22;11.10;99.90
64654;DHT22;51065;48.884;12.598;2023-02-18T08:33:48;11.20;99.90
64654;DHT22;51065;48.884;12.598;2023-02-18T08:36:14;11.20;99.90
64654;DHT22;51065;48.884;12.598;2023-02-18T08:38:39;11.20;99.90
64654;DHT22;51065;48.884;12.598;2023-02-18T08:41:07;11.30;99.90
64654;DHT22;51065;48.884;12.598;2023-02-18T08:43:33;11.30;99.90
64654;DHT22;51065;48.884;12.598;2023-02-18T08:45:59;11.30;99.90
64654;DHT22;51065;48.884;12.598;2023-02-18T08:48:25;11.40;99.90
64654;DHT22;51065;48.884;12.598;2023-02-18T08:50:51;11.30;99.90
64654;DHT22;51065;48.884;12.598;2023-02-18T08:53:17;11.30;99.90
64654;DHT22;51065;48.884;12.598;2023-02-18T08:55:43;11.30;99.90
64654;DHT22;51065;48.884;12.598;2023-02-18T08:58:10;11.40;99.90
64654;DHT22;51065;48.884;12.598;2023-02-18T09:00:36;11.50;99.90
64654;DHT22;51065;48.884;12.598;2023-02-18T09:03:02;11.60;99.90
64654;DHT22;51065;48.884;12.598;2023-02-18T09:05:27;11.70;99.90
64654;DHT22;51065;48.884;12.598;2023-02-18T09:07:53;11.80;99.90
64654;DHT22;51065;48.884;12.598;2023-02-18T09:10:19;11.80;99.90
64654;DHT22;51065;48.884;12.598;2023-02-18T09:12:44;11.90;99.90
64654;DHT22;51065;48.884;12.598;2023-02-18T09:15:10;11.90;99.90
64654;DHT22;51065;48.884;12.598;2023-02-18T09:17:35;11.90;99.90
64654;DHT22;51065;48.884;12.598;2023-02-18T09:20:01;12.00;99.90
64654;DHT22;51065;48.884;12.598;2023-02-18T09:22:28;12.10;99.90
64654;DHT22;51065;48.884;12.598;2023-02-18T09:24:53;12.20;99.90
64654;DHT22;51065;48.884;12.598;2023-02-18T09:27:20;12.40;99.90
64654;DHT22;51065;48.884;12.598;2023-02-18T09:29:45;12.70;99.90
64654;DHT22;51065;48.884;12.598;2023-02-18T09:32:11;13.00;99.60
64654;DHT22;51065;48.884;12.598;2023-02-18T09:34:37;13.30;99.30
64654;DHT22;51065;48.884;12.598;2023-02-18T09:37:03;13.70;98.10
64654;DHT22;51065;48.884;12.598;2023-02-18T09:39:29;14.60;95.40
64654;DHT22;51065;48.884;12.598;2023-02-18T09:42:01;14.90;92.00
64654;DHT22;51065;48.884;12.598;2023-02-18T09:44:42;14.80;86.30
64654;DHT22;51065;48.884;12.598;2023-02-18T09:47:16;14.50;87.80
64654;DHT22;51065;48.884;12.598;2023-02-18T09:49:52;14.10;92.80
64654;DHT22;51065;48.884;12.598;2023-02-18T09:52:27;13.90;94.10
64654;DHT22;51065;48.884;12.598;2023-02-18T09:54:54;13.70;94.70
64654;DHT22;51065;48.884;12.598;2023-02-18T09:57:25;13.70;95.40
64654;DHT22;51065;48.884;12.598;2023-02-18T09:59:58;13.70;95.40
64654;DHT22;51065;48.884;12.598;2023-02-18T10:02:24;13.70;94.90
64654;DHT22;51065;48.884;12.598;2023-02-18T10:04:50;13.70;96.20
64654;DHT22;51065;48.884;12.598;2023-02-18T10:07:30;13.80;96.00
64654;DHT22;51065;48.884;12.598;2023-02-18T10:10:00;13.80;95.80
64654;DHT22;51065;48.884;12.598;2023-02-18T10:12:29;13.70;94.20
64654;DHT22;51065;48.884;12.598;2023-02-18T10:14:59;13.60;96.20
64654;DHT22;51065;48.884;12.598;2023-02-18T10:17:28;13.70;96.20
64654;DHT22;51065;48.884;12.598;2023-02-18T10:19:56;13.90;94.90
64654;DHT22;51065;48.884;12.598;2023-02-18T10:22:24;13.90;95.60
64654;DHT22;51065;48.884;12.598;2023-02-18T10:24:59;13.80;94.20
64654;DHT22;51065;48.884;12.598;2023-02-18T10:27:29;13.80;94.70
64654;DHT22;51065;48.884;12.598;2023-02-18T10:29:57;13.70;94.10
64654;DHT22;51065;48.884;12.598;2023-02-18T10:32:35;13.60;94.90
64654;DHT22;51065;48.884;12.598;2023-02-18T10:46:36;13.50;96.10
64654;DHT22;51065;48.884;12.598;2023-02-18T10:49:25;13.60;96.60
64654;DHT22;51065;48.884;12.598;2023-02-18T10:51:55;13.60;95.40
64654;DHT22;51065;48.884;12.598;2023-02-18T10:54:26;13.50;94.70
64654;DHT22;51065;48.884;12.598;2023-02-18T10:56:58;13.50;95.20
64654;DHT22;51065;48.884;12.598;2023-02-18T10:59:33;13.50;95.50
64654;DHT22;51065;48.884;12.598;2023-02-18T11:02:10;13.50;95.60
64654;DHT22;51065;48.884;12.598;2023-02-18T11:04:40;13.40;95.90
64654;DHT22;51065;48.884;12.598;2023-02-18T11:07:19;13.50;94.90
64654;DHT22;51065;48.884;12.598;2023-02-18T11:12:22;13.50;94.70
64654;DHT22;51065;48.884;12.598;2023-02-18T11:15:35;13.50;95.40
64654;DHT22;51065;48.884;12.598;2023-02-18T11:17:39;13.50;96.00
64654;DHT22;51065;48.884;12.598;2023-02-18T11:20:32;13.50;95.90
64654;DHT22;51065;48.884;12.598;2023-02-18T11:25:32;13.50;95.30
64654;DHT22;51065;48.884;12.598;2023-02-18T11:28:05;13.60;94.90
64654;DHT22;51065;48.884;12.598;2023-02-18T11:30:43;13.60;95.00
64654;DHT22;51065;48.884;12.598;2023-02-18T11:33:24;13.60;94.60
64654;DHT22;51065;48.884;12.598;2023-02-18T11:35:56;13.60;95.40
64654;DHT22;51065;48.884;12.598;2023-02-18T11:38:28;13.60;94.00
64654;DHT22;51065;48.884;12.598;2023-02-18T11:40:56;13.70;93.90
64654;DHT22;51065;48.884;12.598;2023-02-18T11:43:27;13.70;92.90
64654;DHT22;51065;48.884;12.598;2023-02-18T11:48:34;14.00;91.70
64654;DHT22;51065;48.884;12.598;2023-02-18T11:51:01;14.10;92.50
64654;DHT22;51065;48.884;12.598;2023-02-18T11:53:35;14.10;91.60
64654;DHT22;51065;48.884;12.598;2023-02-18T11:56:15;14.10;91.20
64654;DHT22;51065;48.884;12.598;2023-02-18T11:58:44;14.20;91.00
64654;DHT22;51065;48.884;12.598;2023-02-18T12:01:20;14.40;91.10
64654;DHT22;51065;48.884;12.598;2023-02-18T12:03:59;14.40;90.10
64654;DHT22;51065;48.884;12.598;2023-02-18T12:06:51;14.40;89.50
64654;DHT22;51065;48.884;12.598;2023-02-18T12:11:56;14.20;90.50
64654;DHT22;51065;48.884;12.598;2023-02-18T12:14:23;14.20;90.60
64654;DHT22;51065;48.884;12.598;2023-02-18T12:27:28;14.20;90.40
64654;DHT22;51065;48.884;12.598;2023-02-18T12:35:59;13.80;92.00
64654;DHT22;51065;48.884;12.598;2023-02-18T12:41:01;13.80;92.80
64654;DHT22;51065;48.884;12.598;2023-02-18T12:43:38;13.80;93.30
64654;DHT22;51065;48.884;12.598;2023-02-18T13:08:54;13.90;91.20
64654;DHT22;51065;48.884;12.598;2023-02-18T13:14:47;13.80;90.80
64654;DHT22;51065;48.884;12.598;2023-02-18T13:17:15;13.80;90.80
64654;DHT22;51065;48.884;12.598;2023-02-18T13:19:50;13.70;91.50
64654;DHT22;51065;48.884;12.598;2023-02-18T13:22:21;13.60;92.10
64654;DHT22;51065;48.884;12.598;2023-02-18T13:24:48;13.60;92.70
64654;DHT22;51065;48.884;12.598;2023-02-18T13:27:35;13.60;92.40
64654;DHT22;51065;48.884;12.598;2023-02-18T13:31:07;13.50;93.00
64654;DHT22;51065;48.884;12.598;2023-02-18T13:35:45;13.50;92.80
64654;DHT22;51065;48.884;12.598;2023-02-18T13:41:12;13.50;93.00
64654;DHT22;51065;48.884;12.598;2023-02-18T13:43:38;13.50;93.10
64654;DHT22;51065;48.884;12.598;2023-02-18T13:48:54;13.50;94.30
64654;DHT22;51065;48.884;12.598;2023-02-18T13:51:44;13.50;93.30
64654;DHT22;51065;48.884;12.598;2023-02-18T13:56:52;13.50;94.30
64654;DHT22;51065;48.884;12.598;2023-02-18T13:59:20;13.50;94.00
64654;DHT22;51065;48.884;12.598;2023-02-18T14:01:48;13.60;93.70
64654;DHT22;51065;48.884;12.598;2023-02-18T14:04:35;13.50;93.30
64654;DHT22;51065;48.884;12.598;2023-02-18T14:07:25;13.50;92.60
64654;DHT22;51065;48.884;12.598;2023-02-18T14:09:52;13.50;92.50
64654;DHT22;51065;48.884;12.598;2023-02-18T14:20:42;13.60;90.50
64654;DHT22;51065;48.884;12.598;2023-02-18T14:25:56;13.60;89.30
64654;DHT22;51065;48.884;12.598;2023-02-18T14:36:33;13.70;85.50
64654;DHT22;51065;48.884;12.598;2023-02-18T14:44:48;13.70;85.50
64654;DHT22;51065;48.884;12.598;2023-02-18T14:50:04;13.70;88.30
64654;DHT22;51065;48.884;12.598;2023-02-18T14:52:39;13.70;86.20
64654;DHT22;51065;48.884;12.598;2023-02-18T14:55:24;13.70;86.50
64654;DHT22;51065;48.884;12.598;2023-02-18T14:58:02;13.60;87.50
64654;DHT22;51065;48.884;12.598;2023-02-18T15:00:34;13.60;87.80
64654;DHT22;51065;48.884;12.598;2023-02-18T15:03:00;13.50;89.00
64654;DHT22;51065;48.884;12.598;2023-02-18T15:05:31;13.50;89.40
64654;DHT22;51065;48.884;12.598;2023-02-18T15:08:02;13.50;89.20
64654;DHT22;51065;48.884;12.598;2023-02-18T15:10:56;13.40;90.00
64654;DHT22;51065;48.884;12.598;2023-02-18T15:13:33;13.40;90.20
64654;DHT22;51065;48.884;12.598;2023-02-18T15:16:05;13.40;90.00
64654;DHT22;51065;48.884;12.598;2023-02-18T15:18:41;13.30;90.10
64654;DHT22;51065;48.884;12.598;2023-02-18T15:21:18;13.30;90.30
64654;DHT22;51065;48.884;12.598;2023-02-18T15:23:44;13.30;90.50
64654;DHT22;51065;48.884;12.598;2023-02-18T15:26:13;13.30;90.40
64654;DHT22;51065;48.884;12.598;2023-02-18T15:28:49;13.20;91.00
64654;DHT22;51065;48.884;12.598;2023-02-18T15:31:15;13.20;91.10
64654;DHT22;51065;48.884;12.598;2023-02-18T15:33:43;13.20;91.20
64654;DHT22;51065;48.884;12.598;2023-02-18T15:36:11;13.20;90.90
64654;DHT22;51065;48.884;12.598;2023-02-18T15:38:37;13.10;91.10
64654;DHT22;51065;48.884;12.598;2023-02-18T15:41:10;13.10;91.50
64654;DHT22;51065;48.884;12.598;2023-02-18T15:43:37;13.00;91.50
64654;DHT22;51065;48.884;12.598;2023-02-18T15:46:11;13.00;91.10
64654;DHT22;51065;48.884;12.598;2023-02-18T15:48:46;13.10;91.00
64654;DHT22;51065;48.884;12.598;2023-02-18T15:51:15;13.10;90.50
64654;DHT22;51065;48.884;12.598;2023-02-18T15:53:44;13.10;90.20
64654;DHT22;51065;48.884;12.598;2023-02-18T15:56:19;13.10;90.00
64654;DHT22;51065;48.884;12.598;2023-02-18T15:58:45;13.10;90.20
64654;DHT22;51065;48.884;12.598;2023-02-18T16:01:26;13.00;90.70
64654;DHT22;51065;48.884;12.598;2023-02-18T16:03:53;13.00;90.50
64654;DHT22;51065;48.884;12.598;2023-02-18T16:06:27;13.00;91.50
64654;DHT22;51065;48.884;12.598;2023-02-18T16:09:12;13.00;91.90
64654;DHT22;51065;48.884;12.598;2023-02-18T16:11:41;12.90;92.60
64654;DHT22;51065;48.884;12.598;2023-02-18T16:14:35;12.90;92.80
64654;DHT22;51065;48.884;12.598;2023-02-18T16:17:08;12.80;93.20
64654;DHT22;51065;48.884;12.598;2023-02-18T16:19:55;12.80;93.50
64654;DHT22;51065;48.884;12.598;2023-02-18T16:30:27;12.80;93.90
64654;DHT22;51065;48.884;12.598;2023-02-18T16:32:54;12.70;94.00
64654;DHT22;51065;48.884;12.598;2023-02-18T16:35:21;12.70;94.50
64654;DHT22;51065;48.884;12.598;2023-02-18T16:37:47;12.60;95.00
64654;DHT22;51065;48.884;12.598;2023-02-18T16:42:43;12.50;95.20
64654;DHT22;51065;48.884;12.598;2023-02-18T16:45:11;12.50;96.00
64654;DHT22;51065;48.884;12.598;2023-02-18T16:47:38;12.40;96.30
64654;DHT22;51065;48.884;12.598;2023-02-18T16:50:04;12.40;96.30
64654;DHT22;51065;48.884;12.598;2023-02-18T16:52:29;12.40;96.30
64654;DHT22;51065;48.884;12.598;2023-02-18T16:54:55;12.40;96.40
64654;DHT22;51065;48.884;12.598;2023-02-18T16:57:21;12.30;96.90
64654;DHT22;51065;48.884;12.598;2023-02-18T16:59:46;12.30;96.90
64654;DHT22;51065;48.884;12.598;2023-02-18T17:02:18;12.30;96.80
64654;DHT22;51065;48.884;12.598;2023-02-18T17:04:44;12.30;97.10
64654;DHT22;51065;48.884;12.598;2023-02-18T17:07:10;12.30;98.10
64654;DHT22;51065;48.884;12.598;2023-02-18T17:09:36;12.30;98.10
64654;DHT22;51065;48.884;12.598;2023-02-18T17:12:02;12.30;98.60
64654;DHT22;51065;48.884;12.598;2023-02-18T17:14:28;12.20;99.90
64654;DHT22;51065;48.884;12.598;2023-02-18T17:16:54;12.00;99.90
64654;DHT22;51065;48.884;12.598;2023-02-18T17:19:20;11.80;99.90
64654;DHT22;51065;48.884;12.598;2023-02-18T17:21:45;11.60;99.90
64654;DHT22;51065;48.884;12.598;2023-02-18T17:24:16;11.50;99.90
64654;DHT22;51065;48.884;12.598;2023-02-18T17:26:42;11.40;99.90
64654;DHT22;51065;48.884;12.598;2023-02-18T17:29:08;11.40;99.90
64654;DHT22;51065;48.884;12.598;2023-02-18T17:31:38;11.50;99.90
64654;DHT22;51065;48.884;12.598;2023-02-18T17:34:06;11.50;99.90
64654;DHT22;51065;48.884;12.598;2023-02-18T17:36:32;11.50;99.90
64654;DHT22;51065;48.884;12.598;2023-02-18T17:38:58;11.50;99.90
64654;DHT22;51065;48.884;12.598;2023-02-18T17:41:24;11.50;99.90
64654;DHT22;51065;48.884;12.598;2023-02-18T17:43:50;11.50;99.90
64654;DHT22;51065;48.884;12.598;2023-02-18T17:46:17;11.50;99.90
64654;DHT22;51065;48.884;12.598;2023-02-18T17:48:44;11.40;99.90
64654;DHT22;51065;48.884;12.598;2023-02-18T17:51:25;11.40;99.90
64654;DHT22;51065;48.884;12.598;2023-02-18T17:53:51;11.20;99.90
64654;DHT22;51065;48.884;12.598;2023-02-18T17:56:16;11.10;99.90
64654;DHT22;51065;48.884;12.598;2023-02-18T17:58:42;11.00;99.90
64654;DHT22;51065;48.884;12.598;2023-02-18T18:01:09;10.90;99.90